sensor_id;sensor_type;location;lat;lon;timestamp;pressure;altitude;pressure_sealevel;temperature
8362;BMP180;4218;48.326;14.304;2023-08-20T00:02:10;98826.00;;;19.90
8362;BMP180;4218;48.326;14.304;2023-08-20T00:04:36;98820.00;;;19.90
8362;BMP180;4218;48.326;14.304;2023-08-20T00:07:02;98822.00;;;19.90
8362;BMP180;4218;48.326;14.304;2023-08-20T00:09:28;98814.00;;;19.90
8362;BMP180;4218;48.326;14.304;2023-08-20T00:11:54;98819.00;;;19.90
8362;BMP180;4218;48.326;14.304;2023-08-20T00:14:19;98817.00;;;19.80
8362;BMP180;4218;48.326;14.304;2023-08-20T00:16:46;98826.00;;;19.80
8362;BMP180;4218;48.326;14.304;2023-08-20T00:19:12;98829.00;;;19.90
8362;BMP180;4218;48.326;14.304;2023-08-20T00:21:41;98837.00;;;19.90
8362;BMP180;4218;48.326;14.304;2023-08-20T00:24:08;98829.00;;;19.90
8362;BMP180;4218;48.326;14.304;2023-08-20T00:26:34;98830.00;;;19.80
8362;BMP180;4218;48.326;14.304;2023-08-20T00:28:59;98820.00;;;19.80
8362;BMP180;4218;48.326;14.304;2023-08-20T00:31:24;98821.00;;;19.80
8362;BMP180;4218;48.326;14.304;2023-08-20T00:33:50;98824.00;;;19.70
8362;BMP180;4218;48.326;14.304;2023-08-20T00:36:15;98820.00;;;19.60
8362;BMP180;4218;48.326;14.304;2023-08-20T00:38:40;98827.00;;;19.60
8362;BMP180;4218;48.326;14.304;2023-08-20T00:41:06;98826.00;;;19.50
8362;BMP180;4218;48.326;14.304;2023-08-20T00:43:31;98835.00;;;19.50
8362;BMP180;4218;48.326;14.304;2023-08-20T00:45:58;98832.00;;;19.50
8362;BMP180;4218;48.326;14.304;2023-08-20T00:48:25;98832.00;;;19.60
8362;BMP180;4218;48.326;14.304;2023-08-20T00:50:50;98825.00;;;19.60
8362;BMP180;4218;48.326;14.304;2023-08-20T00:53:16;98825.00;;;19.50
8362;BMP180;4218;48.326;14.304;2023-08-20T00:55:42;98830.00;;;19.40
8362;BMP180;4218;48.326;14.304;2023-08-20T00:58:09;98831.00;;;19.40
8362;BMP180;4218;48.326;14.304;2023-08-20T01:00:35;98832.00;;;19.40
8362;BMP180;4218;48.326;14.304;2023-08-20T01:03:00;98833.00;;;19.60
8362;BMP180;4218;48.326;14.304;2023-08-20T01:05:26;98829.00;;;19.40
8362;BMP180;4218;48.326;14.304;2023-08-20T01:08:12;98832.00;;;19.30
8362;BMP180;4218;48.326;14.304;2023-08-20T01:11:05;98838.00;;;19.70
8362;BMP180;4218;48.326;14.304;2023-08-20T01:13:32;98837.00;;;19.70
8362;BMP180;4218;48.326;14.304;2023-08-20T01:15:57;98841.00;;;20.00
8362;BMP180;4218;48.326;14.304;2023-08-20T01:18:24;98829.00;;;19.60
8362;BMP180;4218;48.326;14.304;2023-08-20T01:20:57;98842.00;;;19.50
8362;BMP180;4218;48.326;14.304;2023-08-20T01:28:41;98842.00;;;19.40
8362;BMP180;4218;48.326;14.304;2023-08-20T01:31:07;98840.00;;;19.40
8362;BMP180;4218;48.326;14.304;2023-08-20T01:33:33;98838.00;;;19.50
8362;BMP180;4218;48.326;14.304;2023-08-20T01:35:59;98853.00;;;19.40
8362;BMP180;4218;48.326;14.304;2023-08-20T01:38:24;98837.00;;;19.40
8362;BMP180;4218;48.326;14.304;2023-08-20T01:40:50;98837.00;;;19.30
8362;BMP180;4218;48.326;14.304;2023-08-20T01:43:15;98848.00;;;19.30
8362;BMP180;4218;48.326;14.304;2023-08-20T01:45:41;98839.00;;;19.30
8362;BMP180;4218;48.326;14.304;2023-08-20T01:48:07;98851.00;;;19.30
8362;BMP180;4218;48.326;14.304;2023-08-20T01:50:34;98853.00;;;19.30
8362;BMP180;4218;48.326;14.304;2023-08-20T01:53:02;98850.00;;;19.20
8362;BMP180;4218;48.326;14.304;2023-08-20T01:55:28;98847.00;;;19.00
8362;BMP180;4218;48.326;14.304;2023-08-20T01:57:53;98854.00;;;18.90
8362;BMP180;4218;48.326;14.304;2023-08-20T02:00:19;98845.00;;;18.90
8362;BMP180;4218;48.326;14.304;2023-08-20T02:02:44;98859.00;;;18.90
8362;BMP180;4218;48.326;14.304;2023-08-20T02:05:09;98859.00;;;18.80
8362;BMP180;4218;48.326;14.304;2023-08-20T02:07:37;98845.00;;;18.70
8362;BMP180;4218;48.326;14.304;2023-08-20T02:10:03;98846.00;;;18.70
8362;BMP180;4218;48.326;14.304;2023-08-20T02:12:29;98851.00;;;18.70
8362;BMP180;4218;48.326;14.304;2023-08-20T02:14:54;98847.00;;;18.60
8362;BMP180;4218;48.326;14.304;2023-08-20T02:17:19;98849.00;;;18.60
8362;BMP180;4218;48.326;14.304;2023-08-20T02:19:45;98845.00;;;18.70
8362;BMP180;4218;48.326;14.304;2023-08-20T02:22:10;98847.00;;;18.60
8362;BMP180;4218;48.326;14.304;2023-08-20T02:24:36;98848.00;;;18.60
8362;BMP180;4218;48.326;14.304;2023-08-20T02:27:02;98845.00;;;18.60
8362;BMP180;4218;48.326;14.304;2023-08-20T02:29:28;98848.00;;;18.50
8362;BMP180;4218;48.326;14.304;2023-08-20T02:31:53;98839.00;;;18.80
8362;BMP180;4218;48.326;14.304;2023-08-20T02:34:18;98852.00;;;18.80
8362;BMP180;4218;48.326;14.304;2023-08-20T02:36:44;98840.00;;;18.70
8362;BMP180;4218;48.326;14.304;2023-08-20T02:39:09;98842.00;;;18.50
8362;BMP180;4218;48.326;14.304;2023-08-20T02:41:35;98850.00;;;18.40
8362;BMP180;4218;48.326;14.304;2023-08-20T02:44:01;98839.00;;;18.30
8362;BMP180;4218;48.326;14.304;2023-08-20T02:46:27;98849.00;;;18.30
8362;BMP180;4218;48.326;14.304;2023-08-20T02:48:52;98848.00;;;18.30
8362;BMP180;4218;48.326;14.304;2023-08-20T02:51:17;98854.00;;;18.20
8362;BMP180;4218;48.326;14.304;2023-08-20T02:53:43;98849.00;;;18.10
8362;BMP180;4218;48.326;14.304;2023-08-20T02:56:08;98852.00;;;18.10
8362;BMP180;4218;48.326;14.304;2023-08-20T02:58:33;98857.00;;;18.00
8362;BMP180;4218;48.326;14.304;2023-08-20T03:00:59;98851.00;;;18.00
8362;BMP180;4218;48.326;14.304;2023-08-20T03:03:25;98852.00;;;18.00
8362;BMP180;4218;48.326;14.304;2023-08-20T03:05:50;98868.00;;;18.00
8362;BMP180;4218;48.326;14.304;2023-08-20T03:08:15;98870.00;;;18.10
8362;BMP180;4218;48.326;14.304;2023-08-20T03:10:41;98876.00;;;18.10
8362;BMP180;4218;48.326;14.304;2023-08-20T03:13:06;98873.00;;;18.10
8362;BMP180;4218;48.326;14.304;2023-08-20T03:15:31;98871.00;;;18.00
8362;BMP180;4218;48.326;14.304;2023-08-20T03:17:57;98864.00;;;18.10
8362;BMP180;4218;48.326;14.304;2023-08-20T03:20:22;98869.00;;;18.10
8362;BMP180;4218;48.326;14.304;2023-08-20T03:22:48;98869.00;;;18.20
8362;BMP180;4218;48.326;14.304;2023-08-20T03:25:13;98872.00;;;18.20
8362;BMP180;4218;48.326;14.304;2023-08-20T03:27:39;98869.00;;;18.20
8362;BMP180;4218;48.326;14.304;2023-08-20T03:30:05;98872.00;;;18.10
8362;BMP180;4218;48.326;14.304;2023-08-20T03:32:31;98872.00;;;18.00
8362;BMP180;4218;48.326;14.304;2023-08-20T03:34:56;98871.00;;;17.90
8362;BMP180;4218;48.326;14.304;2023-08-20T03:37:24;98872.00;;;17.80
8362;BMP180;4218;48.326;14.304;2023-08-20T03:39:49;98880.00;;;17.80
8362;BMP180;4218;48.326;14.304;2023-08-20T03:42:15;98880.00;;;17.80
8362;BMP180;4218;48.326;14.304;2023-08-20T03:44:40;98880.00;;;17.70
8362;BMP180;4218;48.326;14.304;2023-08-20T03:47:05;98879.00;;;17.70
8362;BMP180;4218;48.326;14.304;2023-08-20T03:49:31;98871.00;;;17.70
8362;BMP180;4218;48.326;14.304;2023-08-20T03:51:56;98875.00;;;17.70
8362;BMP180;4218;48.326;14.304;2023-08-20T03:54:22;98877.00;;;17.60
8362;BMP180;4218;48.326;14.304;2023-08-20T03:56:47;98876.00;;;17.60
8362;BMP180;4218;48.326;14.304;2023-08-20T03:59:12;98881.00;;;17.60
8362;BMP180;4218;48.326;14.304;2023-08-20T04:01:38;98884.00;;;17.50
8362;BMP180;4218;48.326;14.304;2023-08-20T04:04:04;98872.00;;;17.50
8362;BMP180;4218;48.326;14.304;2023-08-20T04:06:29;98872.00;;;17.60
8362;BMP180;4218;48.326;14.304;2023-08-20T04:08:55;98874.00;;;17.70
8362;BMP180;4218;48.326;14.304;2023-08-20T04:11:20;98870.00;;;17.70
8362;BMP180;4218;48.326;14.304;2023-08-20T04:13:45;98877.00;;;17.80
8362;BMP180;4218;48.326;14.304;2023-08-20T04:16:11;98876.00;;;17.80
8362;BMP180;4218;48.326;14.304;2023-08-20T04:18:36;98878.00;;;17.70
8362;BMP180;4218;48.326;14.304;2023-08-20T04:21:01;98878.00;;;17.60
8362;BMP180;4218;48.326;14.304;2023-08-20T04:23:27;98889.00;;;17.60
8362;BMP180;4218;48.326;14.304;2023-08-20T04:25:52;98885.00;;;17.60
8362;BMP180;4218;48.326;14.304;2023-08-20T04:28:18;98880.00;;;17.50
8362;BMP180;4218;48.326;14.304;2023-08-20T04:30:43;98887.00;;;17.50
8362;BMP180;4218;48.326;14.304;2023-08-20T04:33:09;98888.00;;;17.50
8362;BMP180;4218;48.326;14.304;2023-08-20T04:35:34;98888.00;;;17.50
8362;BMP180;4218;48.326;14.304;2023-08-20T04:38:00;98883.00;;;17.60
8362;BMP180;4218;48.326;14.304;2023-08-20T04:40:25;98889.00;;;17.80
8362;BMP180;4218;48.326;14.304;2023-08-20T04:42:51;98894.00;;;17.80
8362;BMP180;4218;48.326;14.304;2023-08-20T04:45:17;98892.00;;;17.70
8362;BMP180;4218;48.326;14.304;2023-08-20T04:47:45;98889.00;;;17.70
8362;BMP180;4218;48.326;14.304;2023-08-20T04:50:10;98894.00;;;17.80
8362;BMP180;4218;48.326;14.304;2023-08-20T04:52:35;98896.00;;;17.80
8362;BMP180;4218;48.326;14.304;2023-08-20T04:55:02;98894.00;;;17.90
8362;BMP180;4218;48.326;14.304;2023-08-20T04:57:27;98886.00;;;17.90
8362;BMP180;4218;48.326;14.304;2023-08-20T04:59:53;98886.00;;;18.00
8362;BMP180;4218;48.326;14.304;2023-08-20T05:02:18;98888.00;;;18.20
8362;BMP180;4218;48.326;14.304;2023-08-20T05:04:44;98895.00;;;18.30
8362;BMP180;4218;48.326;14.304;2023-08-20T05:07:09;98890.00;;;18.30
8362;BMP180;4218;48.326;14.304;2023-08-20T05:09:35;98894.00;;;18.40
8362;BMP180;4218;48.326;14.304;2023-08-20T05:12:00;98906.00;;;18.40
8362;BMP180;4218;48.326;14.304;2023-08-20T05:14:26;98906.00;;;18.50
8362;BMP180;4218;48.326;14.304;2023-08-20T05:16:51;98907.00;;;18.60
8362;BMP180;4218;48.326;14.304;2023-08-20T05:19:17;98900.00;;;18.60
8362;BMP180;4218;48.326;14.304;2023-08-20T05:21:42;98905.00;;;18.70
8362;BMP180;4218;48.326;14.304;2023-08-20T05:24:08;98910.00;;;18.70
8362;BMP180;4218;48.326;14.304;2023-08-20T05:26:34;98921.00;;;18.80
8362;BMP180;4218;48.326;14.304;2023-08-20T05:28:59;98918.00;;;18.90
8362;BMP180;4218;48.326;14.304;2023-08-20T05:31:24;98921.00;;;18.80
8362;BMP180;4218;48.326;14.304;2023-08-20T05:33:50;98920.00;;;18.90
8362;BMP180;4218;48.326;14.304;2023-08-20T05:36:15;98917.00;;;19.00
8362;BMP180;4218;48.326;14.304;2023-08-20T05:38:41;98924.00;;;19.10
8362;BMP180;4218;48.326;14.304;2023-08-20T05:41:08;98926.00;;;19.10
8362;BMP180;4218;48.326;14.304;2023-08-20T05:43:33;98919.00;;;19.10
8362;BMP180;4218;48.326;14.304;2023-08-20T05:45:59;98920.00;;;19.20
8362;BMP180;4218;48.326;14.304;2023-08-20T05:48:24;98922.00;;;19.30
8362;BMP180;4218;48.326;14.304;2023-08-20T05:50:49;98924.00;;;19.40
8362;BMP180;4218;48.326;14.304;2023-08-20T05:53:15;98930.00;;;19.60
8362;BMP180;4218;48.326;14.304;2023-08-20T05:55:40;98924.00;;;19.80
8362;BMP180;4218;48.326;14.304;2023-08-20T05:58:05;98932.00;;;19.90
8362;BMP180;4218;48.326;14.304;2023-08-20T06:00:31;98931.00;;;20.00
8362;BMP180;4218;48.326;14.304;2023-08-20T06:02:56;98927.00;;;20.30
8362;BMP180;4218;48.326;14.304;2023-08-20T06:05:22;98938.00;;;20.50
8362;BMP180;4218;48.326;14.304;2023-08-20T06:07:47;98940.00;;;20.70
8362;BMP180;4218;48.326;14.304;2023-08-20T06:10:12;98937.00;;;20.70
8362;BMP180;4218;48.326;14.304;2023-08-20T06:12:38;98935.00;;;20.70
8362;BMP180;4218;48.326;14.304;2023-08-20T06:15:04;98933.00;;;20.80
8362;BMP180;4218;48.326;14.304;2023-08-20T06:17:29;98938.00;;;20.90
8362;BMP180;4218;48.326;14.304;2023-08-20T06:19:54;98932.00;;;21.10
8362;BMP180;4218;48.326;14.304;2023-08-20T06:22:20;98925.00;;;21.10
8362;BMP180;4218;48.326;14.304;2023-08-20T06:24:45;98933.00;;;20.90
8362;BMP180;4218;48.326;14.304;2023-08-20T06:27:11;98935.00;;;21.00
8362;BMP180;4218;48.326;14.304;2023-08-20T06:29:36;98931.00;;;21.10
8362;BMP180;4218;48.326;14.304;2023-08-20T06:32:02;98936.00;;;21.10
8362;BMP180;4218;48.326;14.304;2023-08-20T06:34:28;98938.00;;;21.10
8362;BMP180;4218;48.326;14.304;2023-08-20T06:36:54;98933.00;;;21.20
8362;BMP180;4218;48.326;14.304;2023-08-20T06:39:19;98931.00;;;21.40
8362;BMP180;4218;48.326;14.304;2023-08-20T06:41:45;98936.00;;;21.40
8362;BMP180;4218;48.326;14.304;2023-08-20T06:44:10;98940.00;;;21.60
8362;BMP180;4218;48.326;14.304;2023-08-20T06:46:36;98936.00;;;21.60
8362;BMP180;4218;48.326;14.304;2023-08-20T06:49:01;98938.00;;;21.50
8362;BMP180;4218;48.326;14.304;2023-08-20T06:51:28;98933.00;;;21.60
8362;BMP180;4218;48.326;14.304;2023-08-20T06:53:53;98939.00;;;21.60
8362;BMP180;4218;48.326;14.304;2023-08-20T06:56:19;98942.00;;;21.70
8362;BMP180;4218;48.326;14.304;2023-08-20T06:58:45;98948.00;;;21.90
8362;BMP180;4218;48.326;14.304;2023-08-20T07:01:11;98939.00;;;22.10
8362;BMP180;4218;48.326;14.304;2023-08-20T07:03:39;98940.00;;;22.20
8362;BMP180;4218;48.326;14.304;2023-08-20T07:06:04;98947.00;;;22.30
8362;BMP180;4218;48.326;14.304;2023-08-20T07:08:30;98947.00;;;22.40
8362;BMP180;4218;48.326;14.304;2023-08-20T07:10:55;98959.00;;;22.50
8362;BMP180;4218;48.326;14.304;2023-08-20T07:13:22;98961.00;;;22.50
8362;BMP180;4218;48.326;14.304;2023-08-20T07:15:47;98955.00;;;22.40
8362;BMP180;4218;48.326;14.304;2023-08-20T07:18:13;98962.00;;;22.40
8362;BMP180;4218;48.326;14.304;2023-08-20T07:20:41;98952.00;;;22.60
8362;BMP180;4218;48.326;14.304;2023-08-20T07:23:07;98958.00;;;22.80
8362;BMP180;4218;48.326;14.304;2023-08-20T07:25:32;98966.00;;;22.90
8362;BMP180;4218;48.326;14.304;2023-08-20T07:27:58;98962.00;;;23.20
8362;BMP180;4218;48.326;14.304;2023-08-20T07:30:27;98961.00;;;23.50
8362;BMP180;4218;48.326;14.304;2023-08-20T07:32:53;98974.00;;;23.70
8362;BMP180;4218;48.326;14.304;2023-08-20T07:35:18;98966.00;;;24.00
8362;BMP180;4218;48.326;14.304;2023-08-20T07:37:43;98970.00;;;24.30
8362;BMP180;4218;48.326;14.304;2023-08-20T07:40:09;98969.00;;;24.40
8362;BMP180;4218;48.326;14.304;2023-08-20T07:42:36;98971.00;;;24.60
8362;BMP180;4218;48.326;14.304;2023-08-20T07:45:01;98975.00;;;24.70
8362;BMP180;4218;48.326;14.304;2023-08-20T07:47:27;98969.00;;;24.80
8362;BMP180;4218;48.326;14.304;2023-08-20T07:49:54;98974.00;;;24.80
8362;BMP180;4218;48.326;14.304;2023-08-20T07:52:20;98966.00;;;24.80
8362;BMP180;4218;48.326;14.304;2023-08-20T07:54:45;98968.00;;;24.70
8362;BMP180;4218;48.326;14.304;2023-08-20T07:57:11;98969.00;;;24.80
8362;BMP180;4218;48.326;14.304;2023-08-20T07:59:37;98977.00;;;24.90
8362;BMP180;4218;48.326;14.304;2023-08-20T08:02:03;98969.00;;;24.90
8362;BMP180;4218;48.326;14.304;2023-08-20T08:04:29;98975.00;;;25.00
8362;BMP180;4218;48.326;14.304;2023-08-20T08:06:54;98977.00;;;25.00
8362;BMP180;4218;48.326;14.304;2023-08-20T08:09:27;98973.00;;;25.00
8362;BMP180;4218;48.326;14.304;2023-08-20T08:11:53;98982.00;;;25.20
8362;BMP180;4218;48.326;14.304;2023-08-20T08:14:18;98971.00;;;24.90
8362;BMP180;4218;48.326;14.304;2023-08-20T08:16:45;98972.00;;;24.90
8362;BMP180;4218;48.326;14.304;2023-08-20T08:19:11;98976.00;;;25.10
8362;BMP180;4218;48.326;14.304;2023-08-20T08:21:36;98981.00;;;25.40
8362;BMP180;4218;48.326;14.304;2023-08-20T08:24:02;98981.00;;;25.20
8362;BMP180;4218;48.326;14.304;2023-08-20T08:26:27;98983.00;;;25.50
8362;BMP180;4218;48.326;14.304;2023-08-20T08:28:53;98977.00;;;25.10
8362;BMP180;4218;48.326;14.304;2023-08-20T08:31:19;98974.00;;;25.00
8362;BMP180;4218;48.326;14.304;2023-08-20T08:33:44;98973.00;;;25.00
8362;BMP180;4218;48.326;14.304;2023-08-20T08:36:09;98977.00;;;25.20
8362;BMP180;4218;48.326;14.304;2023-08-20T08:38:36;98971.00;;;25.20
8362;BMP180;4218;48.326;14.304;2023-08-20T08:41:03;98972.00;;;25.30
8362;BMP180;4218;48.326;14.304;2023-08-20T08:43:34;98979.00;;;25.80
8362;BMP180;4218;48.326;14.304;2023-08-20T08:46:01;98978.00;;;25.80
8362;BMP180;4218;48.326;14.304;2023-08-20T08:48:28;98975.00;;;25.80
8362;BMP180;4218;48.326;14.304;2023-08-20T08:50:54;98976.00;;;25.90
8362;BMP180;4218;48.326;14.304;2023-08-20T08:53:19;98976.00;;;26.20
8362;BMP180;4218;48.326;14.304;2023-08-20T08:55:46;98963.00;;;26.30
8362;BMP180;4218;48.326;14.304;2023-08-20T08:58:12;98964.00;;;26.60
8362;BMP180;4218;48.326;14.304;2023-08-20T09:00:37;98974.00;;;26.90
8362;BMP180;4218;48.326;14.304;2023-08-20T09:03:03;98972.00;;;26.90
8362;BMP180;4218;48.326;14.304;2023-08-20T09:05:28;98968.00;;;27.00
8362;BMP180;4218;48.326;14.304;2023-08-20T09:07:57;98971.00;;;27.10
8362;BMP180;4218;48.326;14.304;2023-08-20T09:10:26;98960.00;;;27.10
8362;BMP180;4218;48.326;14.304;2023-08-20T09:12:54;98977.00;;;27.10
8362;BMP180;4218;48.326;14.304;2023-08-20T09:15:19;98964.00;;;27.20
8362;BMP180;4218;48.326;14.304;2023-08-20T09:17:46;98972.00;;;27.20
8362;BMP180;4218;48.326;14.304;2023-08-20T09:20:11;98974.00;;;27.00
8362;BMP180;4218;48.326;14.304;2023-08-20T09:22:37;98976.00;;;27.10
8362;BMP180;4218;48.326;14.304;2023-08-20T09:25:05;98973.00;;;27.70
8362;BMP180;4218;48.326;14.304;2023-08-20T09:27:38;98976.00;;;28.20
8362;BMP180;4218;48.326;14.304;2023-08-20T09:30:06;98974.00;;;28.50
8362;BMP180;4218;48.326;14.304;2023-08-20T09:32:31;98974.00;;;28.70
8362;BMP180;4218;48.326;14.304;2023-08-20T09:34:56;98976.00;;;28.80
8362;BMP180;4218;48.326;14.304;2023-08-20T09:37:23;98982.00;;;28.90
8362;BMP180;4218;48.326;14.304;2023-08-20T09:39:49;98981.00;;;28.90
8362;BMP180;4218;48.326;14.304;2023-08-20T09:42:15;98979.00;;;29.00
8362;BMP180;4218;48.326;14.304;2023-08-20T09:44:43;98985.00;;;29.30
8362;BMP180;4218;48.326;14.304;2023-08-20T09:47:12;98975.00;;;29.50
8362;BMP180;4218;48.326;14.304;2023-08-20T09:49:47;98979.00;;;28.90
8362;BMP180;4218;48.326;14.304;2023-08-20T09:52:21;98986.00;;;28.80
8362;BMP180;4218;48.326;14.304;2023-08-20T09:55:00;98978.00;;;29.20
8362;BMP180;4218;48.326;14.304;2023-08-20T09:57:38;98989.00;;;29.70
8362;BMP180;4218;48.326;14.304;2023-08-20T10:00:08;98981.00;;;29.90
8362;BMP180;4218;48.326;14.304;2023-08-20T10:02:38;98983.00;;;29.70
8362;BMP180;4218;48.326;14.304;2023-08-20T10:05:05;98989.00;;;29.70
8362;BMP180;4218;48.326;14.304;2023-08-20T10:07:31;98981.00;;;29.80
8362;BMP180;4218;48.326;14.304;2023-08-20T10:09:58;98976.00;;;29.90
8362;BMP180;4218;48.326;14.304;2023-08-20T10:12:26;98984.00;;;29.90
8362;BMP180;4218;48.326;14.304;2023-08-20T10:14:52;98976.00;;;29.80
8362;BMP180;4218;48.326;14.304;2023-08-20T10:17:18;98973.00;;;29.60
8362;BMP180;4218;48.326;14.304;2023-08-20T10:19:43;98972.00;;;29.90
8362;BMP180;4218;48.326;14.304;2023-08-20T10:22:09;98973.00;;;30.00
8362;BMP180;4218;48.326;14.304;2023-08-20T10:24:46;98972.00;;;29.90
8362;BMP180;4218;48.326;14.304;2023-08-20T10:27:12;98971.00;;;29.90
8362;BMP180;4218;48.326;14.304;2023-08-20T10:29:39;98978.00;;;29.90
8362;BMP180;4218;48.326;14.304;2023-08-20T10:32:08;98968.00;;;29.90
8362;BMP180;4218;48.326;14.304;2023-08-20T10:34:39;98976.00;;;29.90
8362;BMP180;4218;48.326;14.304;2023-08-20T10:37:14;98971.00;;;29.90
8362;BMP180;4218;48.326;14.304;2023-08-20T10:39:40;98967.00;;;29.80
8362;BMP180;4218;48.326;14.304;2023-08-20T10:47:24;98966.00;;;29.80
8362;BMP180;4218;48.326;14.304;2023-08-20T10:49:53;98967.00;;;29.80
8362;BMP180;4218;48.326;14.304;2023-08-20T10:52:23;98971.00;;;29.80
8362;BMP180;4218;48.326;14.304;2023-08-20T10:54:51;98965.00;;;29.80
8362;BMP180;4218;48.326;14.304;2023-08-20T10:57:17;98963.00;;;29.80
8362;BMP180;4218;48.326;14.304;2023-08-20T10:59:43;98969.00;;;29.70
8362;BMP180;4218;48.326;14.304;2023-08-20T11:02:14;98967.00;;;29.90
8362;BMP180;4218;48.326;14.304;2023-08-20T11:04:42;98967.00;;;30.00
8362;BMP180;4218;48.326;14.304;2023-08-20T11:07:09;98959.00;;;30.30
8362;BMP180;4218;48.326;14.304;2023-08-20T11:09:34;98961.00;;;30.40
8362;BMP180;4218;48.326;14.304;2023-08-20T11:12:00;98968.00;;;30.40
8362;BMP180;4218;48.326;14.304;2023-08-20T11:14:26;98974.00;;;30.40
8362;BMP180;4218;48.326;14.304;2023-08-20T11:16:55;98961.00;;;30.30
8362;BMP180;4218;48.326;14.304;2023-08-20T11:19:21;98971.00;;;30.20
8362;BMP180;4218;48.326;14.304;2023-08-20T11:21:48;98968.00;;;30.20
8362;BMP180;4218;48.326;14.304;2023-08-20T11:24:13;98966.00;;;30.20
8362;BMP180;4218;48.326;14.304;2023-08-20T11:26:40;98969.00;;;30.10
8362;BMP180;4218;48.326;14.304;2023-08-20T11:29:06;98972.00;;;30.20
8362;BMP180;4218;48.326;14.304;2023-08-20T11:31:32;98971.00;;;30.30
8362;BMP180;4218;48.326;14.304;2023-08-20T11:33:57;98965.00;;;30.30
8362;BMP180;4218;48.326;14.304;2023-08-20T11:36:23;98963.00;;;30.60
8362;BMP180;4218;48.326;14.304;2023-08-20T11:38:50;98967.00;;;30.70
8362;BMP180;4218;48.326;14.304;2023-08-20T11:41:16;98963.00;;;30.60
8362;BMP180;4218;48.326;14.304;2023-08-20T11:43:42;98969.00;;;30.50
8362;BMP180;4218;48.326;14.304;2023-08-20T11:46:13;98963.00;;;30.70
8362;BMP180;4218;48.326;14.304;2023-08-20T11:48:38;98964.00;;;30.70
8362;BMP180;4218;48.326;14.304;2023-08-20T11:51:04;98966.00;;;30.50
8362;BMP180;4218;48.326;14.304;2023-08-20T11:53:29;98963.00;;;30.60
8362;BMP180;4218;48.326;14.304;2023-08-20T11:55:55;98964.00;;;30.60
8362;BMP180;4218;48.326;14.304;2023-08-20T11:58:20;98963.00;;;30.60
8362;BMP180;4218;48.326;14.304;2023-08-20T12:00:49;98961.00;;;30.50
8362;BMP180;4218;48.326;14.304;2023-08-20T12:03:18;98965.00;;;30.50
8362;BMP180;4218;48.326;14.304;2023-08-20T12:05:43;98959.00;;;30.50
8362;BMP180;4218;48.326;14.304;2023-08-20T12:08:15;98968.00;;;30.40
8362;BMP180;4218;48.326;14.304;2023-08-20T12:10:42;98957.00;;;30.00
8362;BMP180;4218;48.326;14.304;2023-08-20T12:13:08;98956.00;;;30.20
8362;BMP180;4218;48.326;14.304;2023-08-20T12:15:33;98959.00;;;30.40
8362;BMP180;4218;48.326;14.304;2023-08-20T12:18:03;98953.00;;;30.40
8362;BMP180;4218;48.326;14.304;2023-08-20T12:20:34;98953.00;;;30.40
8362;BMP180;4218;48.326;14.304;2023-08-20T12:23:06;98957.00;;;30.20
8362;BMP180;4218;48.326;14.304;2023-08-20T12:25:33;98946.00;;;30.30
8362;BMP180;4218;48.326;14.304;2023-08-20T12:28:00;98951.00;;;30.40
8362;BMP180;4218;48.326;14.304;2023-08-20T12:30:26;98948.00;;;30.60
8362;BMP180;4218;48.326;14.304;2023-08-20T12:32:51;98934.00;;;30.70
8362;BMP180;4218;48.326;14.304;2023-08-20T12:35:17;98934.00;;;30.70
8362;BMP180;4218;48.326;14.304;2023-08-20T12:37:42;98935.00;;;30.50
8362;BMP180;4218;48.326;14.304;2023-08-20T12:40:08;98931.00;;;30.60
8362;BMP180;4218;48.326;14.304;2023-08-20T12:42:36;98921.00;;;30.80
8362;BMP180;4218;48.326;14.304;2023-08-20T12:45:04;98929.00;;;31.00
8362;BMP180;4218;48.326;14.304;2023-08-20T12:47:30;98934.00;;;30.70
8362;BMP180;4218;48.326;14.304;2023-08-20T12:49:55;98925.00;;;30.90
8362;BMP180;4218;48.326;14.304;2023-08-20T12:52:20;98933.00;;;31.00
8362;BMP180;4218;48.326;14.304;2023-08-20T12:54:45;98932.00;;;31.20
8362;BMP180;4218;48.326;14.304;2023-08-20T12:57:11;98928.00;;;30.90
8362;BMP180;4218;48.326;14.304;2023-08-20T12:59:38;98925.00;;;31.10
8362;BMP180;4218;48.326;14.304;2023-08-20T13:02:03;98927.00;;;31.40
8362;BMP180;4218;48.326;14.304;2023-08-20T13:04:29;98927.00;;;31.30
8362;BMP180;4218;48.326;14.304;2023-08-20T13:06:54;98919.00;;;31.40
8362;BMP180;4218;48.326;14.304;2023-08-20T13:09:20;98919.00;;;31.30
8362;BMP180;4218;48.326;14.304;2023-08-20T13:11:47;98915.00;;;31.40
8362;BMP180;4218;48.326;14.304;2023-08-20T13:14:12;98901.00;;;31.50
8362;BMP180;4218;48.326;14.304;2023-08-20T13:16:38;98902.00;;;31.50
8362;BMP180;4218;48.326;14.304;2023-08-20T13:19:04;98891.00;;;31.50
8362;BMP180;4218;48.326;14.304;2023-08-20T13:21:29;98900.00;;;31.40
8362;BMP180;4218;48.326;14.304;2023-08-20T13:23:55;98901.00;;;31.40
8362;BMP180;4218;48.326;14.304;2023-08-20T13:26:20;98896.00;;;31.50
8362;BMP180;4218;48.326;14.304;2023-08-20T13:28:47;98899.00;;;31.00
8362;BMP180;4218;48.326;14.304;2023-08-20T13:31:13;98887.00;;;30.70
8362;BMP180;4218;48.326;14.304;2023-08-20T13:33:39;98886.00;;;30.50
8362;BMP180;4218;48.326;14.304;2023-08-20T13:36:05;98884.00;;;30.60
8362;BMP180;4218;48.326;14.304;2023-08-20T13:38:33;98889.00;;;30.70
8362;BMP180;4218;48.326;14.304;2023-08-20T13:40:59;98889.00;;;31.00
8362;BMP180;4218;48.326;14.304;2023-08-20T13:43:24;98881.00;;;31.20
8362;BMP180;4218;48.326;14.304;2023-08-20T13:45:50;98883.00;;;31.20
8362;BMP180;4218;48.326;14.304;2023-08-20T13:48:15;98883.00;;;31.20
8362;BMP180;4218;48.326;14.304;2023-08-20T13:50:40;98885.00;;;31.20
8362;BMP180;4218;48.326;14.304;2023-08-20T13:53:06;98889.00;;;30.80
8362;BMP180;4218;48.326;14.304;2023-08-20T13:55:31;98884.00;;;31.10
8362;BMP180;4218;48.326;14.304;2023-08-20T13:57:57;98878.00;;;30.90
8362;BMP180;4218;48.326;14.304;2023-08-20T14:00:22;98880.00;;;31.00
8362;BMP180;4218;48.326;14.304;2023-08-20T14:02:48;98880.00;;;31.00
8362;BMP180;4218;48.326;14.304;2023-08-20T14:05:13;98872.00;;;31.30
8362;BMP180;4218;48.326;14.304;2023-08-20T14:07:38;98878.00;;;31.40
8362;BMP180;4218;48.326;14.304;2023-08-20T14:10:04;98875.00;;;31.50
8362;BMP180;4218;48.326;14.304;2023-08-20T14:12:30;98869.00;;;31.40
8362;BMP180;4218;48.326;14.304;2023-08-20T14:14:55;98879.00;;;31.50
8362;BMP180;4218;48.326;14.304;2023-08-20T14:17:21;98876.00;;;31.50
8362;BMP180;4218;48.326;14.304;2023-08-20T14:19:46;98876.00;;;31.40
8362;BMP180;4218;48.326;14.304;2023-08-20T14:22:12;98878.00;;;31.30
8362;BMP180;4218;48.326;14.304;2023-08-20T14:24:37;98866.00;;;31.20
8362;BMP180;4218;48.326;14.304;2023-08-20T14:27:02;98873.00;;;31.40